Time;durP1;ratioP1;P1;durP2;ratioP2;P2;SDS_P1;SDS_P2;PMS_P1;PMS_P2;Temp;Humidity;BMP_temperature;BMP_pressure;BME280_temperature;BME280_humidity;BME280_pressure;Samples;Min_cycle;Max_cycle;Signal;HPM_P1;HPM_P2
2021/05/09 00:02:13;;;;;;;18.27;4.88;;;;;;;13.93;65.41;100551.94;4954721;28;20055;-56
2021/05/09 00:04:40;;;;;;;18.35;4.70;;;;;;;13.91;65.32;100553.34;4954978;28;20510;-56
2021/05/09 00:07:09;;;;;;;16.33;4.28;;;;;;;13.91;65.26;100553.34;4954406;28;20047;-54
2021/05/09 00:09:37;;;;;;;12.48;4.25;;;;;;;13.90;65.38;100546.22;4954044;28;20409;-56
2021/05/09 00:12:05;;;;;;;16.80;4.10;;;;;;;13.88;65.71;100545.69;4954027;28;20036;-57
2021/05/09 00:14:32;;;;;;;11.52;3.80;;;;;;;13.89;65.60;100539.13;4954197;28;20098;-56
2021/05/09 00:16:59;;;;;;;13.00;4.22;;;;;;;13.86;65.76;100537.81;4954064;28;20040;-55
2021/05/09 00:19:26;;;;;;;8.02;3.33;;;;;;;13.83;65.49;100536.47;4953080;28;20062;-55
2021/05/09 00:21:54;;;;;;;9.80;3.45;;;;;;;13.83;65.27;100532.94;4954287;28;20457;-57
2021/05/09 00:24:21;;;;;;;10.25;4.20;;;;;;;13.82;65.54;100536.75;4954395;28;20138;-56
2021/05/09 00:26:48;;;;;;;13.43;4.05;;;;;;;13.78;65.82;100533.81;4953702;28;20051;-57
2021/05/09 00:29:15;;;;;;;9.93;3.33;;;;;;;13.77;65.42;100525.88;4953727;28;20043;-55
2021/05/09 00:31:42;;;;;;;8.80;3.33;;;;;;;13.76;65.79;100529.75;4954013;28;20450;-56
2021/05/09 00:34:10;;;;;;;9.63;3.40;;;;;;;13.74;66.00;100527.28;4954060;28;20043;-56
2021/05/09 00:36:37;;;;;;;6.50;3.40;;;;;;;13.72;66.06;100524.03;4969011;28;20043;-56
2021/05/09 00:39:04;;;;;;;6.68;3.03;;;;;;;13.71;65.58;100521.56;4952562;29;20047;-55
2021/05/09 00:41:31;;;;;;;10.43;3.47;;;;;;;13.72;66.13;100517.75;4953246;28;20043;-54
2021/05/09 00:43:59;;;;;;;6.95;3.35;;;;;;;13.71;66.24;100514.19;4953867;28;20054;-55
2021/05/09 00:46:26;;;;;;;8.82;3.25;;;;;;;13.71;65.88;100513.38;4953990;28;20538;-56
2021/05/09 00:48:54;;;;;;;9.70;3.38;;;;;;;13.68;66.05;100511.22;4953693;28;20043;-56
2021/05/09 00:51:21;;;;;;;13.50;4.45;;;;;;;13.67;66.23;100512.34;4952510;29;20039;-53
2021/05/09 00:53:50;;;;;;;6.50;3.10;;;;;;;13.66;65.88;100502.50;4953919;28;20043;-54
2021/05/09 00:56:19;;;;;;;6.78;3.30;;;;;;;13.66;65.83;100503.28;4936142;29;20075;-56
2021/05/09 00:58:48;;;;;;;8.23;3.72;;;;;;;13.66;65.75;100500.56;4952480;29;20081;-56
2021/05/09 01:01:16;;;;;;;10.10;3.70;;;;;;;13.63;66.15;100499.22;4952268;29;20106;-56
2021/05/09 01:03:46;;;;;;;7.13;3.45;;;;;;;13.61;66.03;100497.91;4952486;29;20052;-52
2021/05/09 01:06:14;;;;;;;9.65;3.42;;;;;;;13.60;66.41;100494.34;4953488;28;20450;-54
2021/05/09 01:08:41;;;;;;;8.35;3.20;;;;;;;13.60;66.18;100509.97;4952729;29;20047;-54
2021/05/09 01:11:09;;;;;;;7.32;3.30;;;;;;;13.58;66.32;100498.50;4951724;29;20066;-56
2021/05/09 01:13:36;;;;;;;9.55;3.47;;;;;;;13.57;65.89;100488.69;4952255;28;20106;-56
2021/05/09 01:16:03;;;;;;;8.35;3.75;;;;;;;13.57;66.39;100491.41;4953390;28;20051;-53
2021/05/09 01:18:31;;;;;;;7.75;3.40;;;;;;;13.54;66.16;100483.78;4968027;28;20118;-52
2021/05/09 01:20:59;;;;;;;8.32;3.40;;;;;;;13.52;66.58;100484.09;4952635;29;20071;-55
2021/05/09 01:23:27;;;;;;;7.03;3.30;;;;;;;13.50;66.61;100478.09;4953470;28;20071;-53
2021/05/09 01:25:54;;;;;;;8.38;3.45;;;;;;;13.51;66.14;100478.91;4967677;28;20070;-55
2021/05/09 01:28:21;;;;;;;7.93;3.25;;;;;;;13.50;66.01;100471.81;4953157;28;20055;-52
2021/05/09 01:30:49;;;;;;;10.65;3.42;;;;;;;13.47;66.10;100478.69;4953152;28;20533;-53
2021/05/09 01:33:16;;;;;;;8.27;3.70;;;;;;;13.44;66.82;100468.31;4955969;28;20054;-53
2021/05/09 01:35:44;;;;;;;7.45;3.33;;;;;;;13.44;66.84;100468.31;4956901;28;20101;-55
2021/05/09 01:38:11;;;;;;;8.50;3.50;;;;;;;13.43;66.94;100464.78;4955661;28;20051;-54
2021/05/09 01:40:39;;;;;;;4.90;3.20;;;;;;;13.44;66.43;100460.09;4956497;28;20043;-56
2021/05/09 01:43:06;;;;;;;8.25;3.72;;;;;;;13.42;66.12;100454.09;4956864;28;20039;-54
2021/05/09 01:45:33;;;;;;;8.38;3.92;;;;;;;13.39;66.94;100460.19;4956619;28;20443;-54
2021/05/09 01:48:00;;;;;;;8.00;3.70;;;;;;;13.36;66.96;100460.78;4956806;28;20051;-56
2021/05/09 01:50:27;;;;;;;7.75;3.60;;;;;;;13.36;66.43;100455.31;4955616;29;20106;-56
2021/05/09 01:52:55;;;;;;;6.78;3.60;;;;;;;13.37;67.12;100446.81;4955277;29;20039;-54
2021/05/09 01:55:24;;;;;;;9.02;3.95;;;;;;;13.34;66.78;100446.56;4956303;28;20043;-54
2021/05/09 01:58:03;;;;;;;9.70;3.47;;;;;;;13.30;66.68;100445.53;4971130;28;20047;-54
2021/05/09 02:00:43;;;;;;;9.38;4.00;;;;;;;13.27;67.32;100444.19;4971613;28;20058;-55
2021/05/09 02:03:18;;;;;;;8.93;4.05;;;;;;;13.26;66.69;100452.69;4971398;28;20047;-58
2021/05/09 02:05:46;;;;;;;6.05;3.90;;;;;;;13.26;66.57;100450.75;4955179;28;20050;-54
2021/05/09 02:08:15;;;;;;;6.90;3.65;;;;;;;13.24;67.21;100452.16;4970871;28;20035;-55
2021/05/09 02:10:48;;;;;;;8.20;3.95;;;;;;;13.24;67.37;100446.69;4955950;28;20058;-51
2021/05/09 02:13:16;;;;;;;8.65;3.80;;;;;;;13.22;67.22;100445.06;4970909;28;20102;-55
2021/05/09 02:15:56;;;;;;;10.80;3.80;;;;;;;13.20;66.85;100441.81;4971383;28;20047;-54
2021/05/09 02:18:24;;;;;;;8.55;4.30;;;;;;;13.20;67.40;100436.34;4956176;28;20039;-52
2021/05/09 02:20:51;;;;;;;10.70;3.85;;;;;;;13.21;67.14;100435.22;4971278;28;20553;-56
2021/05/09 02:23:20;;;;;;;9.70;4.20;;;;;;;13.22;66.57;100427.81;4954200;28;20050;-54
2021/05/09 02:25:48;;;;;;;10.60;4.22;;;;;;;13.19;67.08;100415.56;4955840;28;20134;-54
2021/05/09 02:28:18;;;;;;;8.23;3.83;;;;;;;13.19;67.25;100412.00;4970484;28;20466;-51
2021/05/09 02:30:47;;;;;;;8.43;4.22;;;;;;;13.19;66.89;100410.09;4956224;28;20051;-57
2021/05/09 02:33:15;;;;;;;7.82;3.90;;;;;;;13.18;67.22;100411.22;4971007;28;20051;-56
2021/05/09 02:35:45;;;;;;;9.50;4.00;;;;;;;13.19;66.73;100410.09;4955507;28;20477;-57
2021/05/09 02:38:13;;;;;;;8.20;4.05;;;;;;;13.18;67.14;100405.72;4951730;28;20051;-57
2021/05/09 02:40:40;;;;;;;8.02;4.00;;;;;;;13.17;66.61;100398.63;4952542;29;20043;-53
2021/05/09 02:43:08;;;;;;;9.07;4.00;;;;;;;13.16;67.47;100401.66;4947526;28;20039;-56
2021/05/09 02:45:37;;;;;;;7.07;3.72;;;;;;;13.16;67.10;100388.81;4954867;28;20058;-54
2021/05/09 02:48:04;;;;;;;7.38;3.97;;;;;;;13.16;66.97;100391.53;4955456;28;20043;-54
2021/05/09 02:50:33;;;;;;;9.48;3.88;;;;;;;13.15;66.74;100386.34;4955604;28;20540;-56
2021/05/09 02:53:00;;;;;;;9.57;4.55;;;;;;;13.13;67.42;100386.66;4955345;28;20055;-55
2021/05/09 02:55:28;;;;;;;8.77;3.58;;;;;;;13.13;67.41;100394.03;4954207;29;20043;-56
2021/05/09 02:57:55;;;;;;;10.40;3.72;;;;;;;13.14;66.62;100401.16;4970539;28;20047;-53
2021/05/09 03:00:23;;;;;;;9.98;4.10;;;;;;;13.13;66.96;100400.34;4953928;29;20114;-57
2021/05/09 03:03:07;;;;;;;10.18;4.00;;;;;;;13.12;67.07;100393.22;4970388;28;20054;-55
2021/05/09 03:05:35;;;;;;;10.43;4.07;;;;;;;13.10;67.01;100400.09;4955294;28;20143;-57
2021/05/09 03:08:02;;;;;;;8.02;3.50;;;;;;;13.09;66.83;100395.75;4969783;28;20852;-56
2021/05/09 03:10:30;;;;;;;7.68;3.78;;;;;;;13.11;67.06;100396.28;4969793;28;20454;-55
2021/05/09 03:12:58;;;;;;;8.38;3.72;;;;;;;13.12;67.41;100392.41;4969902;28;20043;-54
2021/05/09 03:15:25;;;;;;;8.02;3.90;;;;;;;13.10;67.37;100395.44;4969966;28;20047;-54
2021/05/09 03:17:53;;;;;;;9.70;3.50;;;;;;;13.10;67.17;100392.69;4954446;28;20047;-54
2021/05/09 03:20:20;;;;;;;10.18;3.78;;;;;;;13.10;67.44;100387.22;4955269;28;20504;-55
2021/05/09 03:22:47;;;;;;;8.32;3.70;;;;;;;13.08;67.08;100389.44;4954415;28;20804;-55
2021/05/09 03:25:15;;;;;;;9.73;4.03;;;;;;;13.05;67.73;100395.50;4955172;28;20039;-54
2021/05/09 03:27:42;;;;;;;8.43;3.80;;;;;;;13.00;67.81;100387.38;4954588;28;20079;-55
2021/05/09 03:30:10;;;;;;;7.13;3.22;;;;;;;12.99;67.30;100391.25;4955097;28;20043;-52
2021/05/09 03:32:37;;;;;;;9.00;3.90;;;;;;;12.99;67.66;100393.97;4953333;29;20051;-55
2021/05/09 03:35:08;;;;;;;6.18;3.45;;;;;;;12.97;67.40;100383.31;4954875;28;20066;-56
2021/05/09 03:37:35;;;;;;;7.60;3.67;;;;;;;12.99;67.60;100374.84;4954677;28;20105;-55
2021/05/09 03:40:04;;;;;;;9.68;3.88;;;;;;;13.01;67.60;100367.13;4954491;28;20039;-54
2021/05/09 03:42:31;;;;;;;8.65;3.70;;;;;;;13.02;67.73;100366.03;4954713;28;20111;-53
2021/05/09 03:44:59;;;;;;;8.13;3.45;;;;;;;13.02;67.34;100368.75;4969303;28;20122;-55
2021/05/09 03:47:28;;;;;;;10.05;3.75;;;;;;;13.03;67.39;100369.56;4954600;28;20069;-54
2021/05/09 03:49:56;;;;;;;7.22;3.40;;;;;;;13.02;68.24;100366.03;4953632;28;20466;-52
2021/05/09 03:52:24;;;;;;;7.28;3.72;;;;;;;13.04;67.92;100376.69;4954656;28;20453;-54
2021/05/09 03:54:53;;;;;;;8.20;4.03;;;;;;;13.04;67.07;100366.56;4953962;28;20108;-54
2021/05/09 03:57:20;;;;;;;7.63;3.50;;;;;;;13.03;67.14;100359.44;4954309;28;20055;-56
2021/05/09 03:59:47;;;;;;;7.13;3.10;;;;;;;13.04;67.79;100352.06;4952941;29;20086;-53
2021/05/09 04:02:14;;;;;;;6.80;3.50;;;;;;;13.05;67.68;100353.69;4954160;28;20043;-53
2021/05/09 04:04:41;;;;;;;7.07;3.67;;;;;;;13.04;67.88;100341.94;4954153;28;20043;-55
2021/05/09 04:07:08;;;;;;;8.52;3.55;;;;;;;13.05;67.73;100335.34;4954397;28;20043;-55
2021/05/09 04:09:35;;;;;;;6.55;3.30;;;;;;;13.05;67.72;100335.34;4954095;28;20047;-51
2021/05/09 04:12:05;;;;;;;8.73;4.13;;;;;;;13.05;67.58;100324.41;4953988;28;20051;-54
2021/05/09 04:14:33;;;;;;;9.73;3.60;;;;;;;13.06;67.65;100326.03;4953882;28;20058;-55
2021/05/09 04:17:00;;;;;;;9.80;3.58;;;;;;;13.07;67.49;100327.66;4954137;28;20039;-53
2021/05/09 04:19:27;;;;;;;9.82;3.45;;;;;;;13.07;67.89;100316.72;4953385;28;20520;-55
2021/05/09 04:21:54;;;;;;;8.70;3.28;;;;;;;13.07;68.05;100326.84;4953761;28;20047;-55
2021/05/09 04:24:22;;;;;;;8.77;3.15;;;;;;;13.06;67.92;100331.53;4953793;28;20110;-53
2021/05/09 04:26:50;;;;;;;9.65;3.70;;;;;;;13.06;67.40;100334.25;4953716;28;20066;-54
2021/05/09 04:29:17;;;;;;;6.47;3.58;;;;;;;13.08;68.00;100339.41;4953410;28;20051;-54
2021/05/09 04:31:44;;;;;;;9.25;3.20;;;;;;;13.06;68.24;100345.19;4953913;28;20051;-56
2021/05/09 04:34:12;;;;;;;6.30;3.40;;;;;;;13.07;68.57;100343.25;4953466;28;20039;-56
2021/05/09 04:36:39;;;;;;;9.82;3.47;;;;;;;13.06;68.26;100338.88;4951488;28;20043;-55
2021/05/09 04:39:06;;;;;;;5.70;3.08;;;;;;;13.06;68.45;100341.63;4953444;28;20410;-52
2021/05/09 04:41:33;;;;;;;10.77;3.85;;;;;;;13.08;68.16;100340.22;4953433;28;20047;-52
2021/05/09 04:44:00;;;;;;;8.90;3.40;;;;;;;13.08;67.53;100339.41;4953165;28;20043;-55
2021/05/09 04:46:28;;;;;;;6.45;3.30;;;;;;;13.07;67.92;100346.81;4952383;29;20067;-54
2021/05/09 04:48:55;;;;;;;7.07;3.50;;;;;;;13.06;67.97;100345.19;4953185;28;20067;-53
2021/05/09 04:51:22;;;;;;;8.68;3.70;;;;;;;13.07;68.13;100338.59;4953036;28;20541;-53
2021/05/09 04:53:49;;;;;;;5.68;3.70;;;;;;;13.05;68.11;100340.00;4952987;28;20094;-54
2021/05/09 04:56:19;;;;;;;6.55;3.35;;;;;;;13.07;68.05;100338.59;4952981;28;20046;-52
2021/05/09 04:58:47;;;;;;;7.88;3.50;;;;;;;13.09;68.22;100339.13;4953293;28;20043;-51
2021/05/09 05:01:14;;;;;;;7.70;3.38;;;;;;;13.12;68.30;100335.78;4953269;28;20122;-56
2021/05/09 05:03:43;;;;;;;5.70;3.45;;;;;;;13.13;68.34;100331.13;4952305;28;20456;-53
2021/05/09 05:06:11;;;;;;;8.02;3.40;;;;;;;13.13;68.07;100331.13;4954893;28;20055;-51
2021/05/09 05:08:38;;;;;;;5.25;3.25;;;;;;;13.14;68.26;100339.03;4957235;28;20054;-54
2021/05/09 05:11:06;;;;;;;8.73;3.80;;;;;;;13.14;68.01;100322.63;4956647;28;20466;-56
2021/05/09 05:13:34;;;;;;;6.75;3.55;;;;;;;13.16;68.52;100325.06;4956701;28;20043;-52
2021/05/09 05:16:09;;;;;;;7.65;3.72;;;;;;;13.17;68.23;100332.16;4956911;28;20092;-55
2021/05/09 05:18:37;;;;;;;7.10;3.85;;;;;;;13.19;67.79;100332.69;4956693;28;20043;-54
2021/05/09 05:21:05;;;;;;;10.30;3.60;;;;;;;13.21;67.64;100334.00;4955257;29;20043;-50
2021/05/09 05:23:35;;;;;;;9.43;3.72;;;;;;;13.24;67.68;100326.31;4940975;29;20050;-51
2021/05/09 05:26:06;;;;;;;6.95;3.63;;;;;;;13.27;67.79;100333.91;4966424;28;20410;-54
2021/05/09 05:28:33;;;;;;;6.43;3.53;;;;;;;13.28;68.11;100330.13;4956661;28;20157;-53
2021/05/09 05:31:00;;;;;;;7.93;3.38;;;;;;;13.28;67.79;100319.19;4956564;28;20107;-54
2021/05/09 05:33:32;;;;;;;6.10;3.47;;;;;;;13.28;67.65;100322.72;4956381;28;20486;-50
2021/05/09 05:36:00;;;;;;;7.53;4.00;;;;;;;13.29;67.34;100323.53;4955314;28;20051;-51
2021/05/09 05:38:28;;;;;;;10.18;3.97;;;;;;;13.29;67.70;100318.06;4956308;28;20086;-56
2021/05/09 05:40:57;;;;;;;7.40;3.58;;;;;;;13.30;67.43;100312.28;4956455;28;20468;-51
2021/05/09 05:43:26;;;;;;;8.50;4.22;;;;;;;13.31;67.58;100311.19;4956182;28;20104;-57
2021/05/09 05:45:54;;;;;;;7.13;3.78;;;;;;;13.32;67.54;100311.97;4956545;28;20047;-51
2021/05/09 05:48:21;;;;;;;8.65;3.88;;;;;;;13.33;67.16;100313.63;4956196;28;20550;-51
2021/05/09 05:50:49;;;;;;;4.30;3.25;;;;;;;13.34;67.68;100320.72;4957055;28;20051;-53
2021/05/09 05:53:21;;;;;;;6.00;3.85;;;;;;;13.35;67.40;100319.63;4962443;28;20578;-54
2021/05/09 05:55:50;;;;;;;7.38;3.47;;;;;;;13.38;67.57;100305.31;4960356;28;20047;-54
2021/05/09 05:58:18;;;;;;;6.38;3.67;;;;;;;13.41;67.43;100307.44;4957140;28;20058;-54
2021/05/09 06:00:45;;;;;;;5.75;3.40;;;;;;;13.43;67.24;100308.78;4956590;28;20051;-56
2021/05/09 06:03:13;;;;;;;5.57;3.63;;;;;;;13.46;66.96;100301.88;4956597;28;20054;-55
2021/05/09 06:05:43;;;;;;;6.50;3.50;;;;;;;13.48;66.82;100305.16;4955799;28;20499;-53
2021/05/09 06:08:10;;;;;;;7.90;3.60;;;;;;;13.52;66.90;100295.22;4956606;28;20050;-54
2021/05/09 06:10:38;;;;;;;5.72;3.50;;;;;;;13.56;66.47;100306.38;4267966;28;9999935;-56
2021/05/09 06:13:05;;;;;;;7.13;3.70;;;;;;;13.58;66.32;100307.69;4946026;29;20494;-52
2021/05/09 06:15:32;;;;;;;6.03;3.80;;;;;;;13.61;66.11;100298.91;4953528;28;20058;-54
2021/05/09 06:17:59;;;;;;;7.82;3.95;;;;;;;13.61;66.20;100301.63;4952688;28;20465;-57
2021/05/09 06:20:27;;;;;;;7.65;4.20;;;;;;;13.63;65.54;100306.78;4953677;28;20054;-55
2021/05/09 06:22:58;;;;;;;7.63;4.05;;;;;;;13.64;65.54;100292.81;4953695;28;20498;-55
2021/05/09 06:25:26;;;;;;;9.77;3.90;;;;;;;13.67;65.50;100285.94;4954080;28;20039;-53
2021/05/09 06:27:54;;;;;;;7.05;3.90;;;;;;;13.70;64.92;100287.25;4941719;29;20113;-53
2021/05/09 06:30:21;;;;;;;9.73;4.20;;;;;;;13.73;64.88;100272.94;4954490;28;20086;-54
2021/05/09 06:32:48;;;;;;;7.72;3.80;;;;;;;13.78;64.36;100278.31;4613540;28;9999836;-53
2021/05/09 06:35:16;;;;;;;6.28;3.60;;;;;;;13.82;64.67;100284.81;4954618;28;20054;-54
2021/05/09 06:37:43;;;;;;;8.73;4.03;;;;;;;13.85;64.19;100282.31;4954066;28;20478;-51
2021/05/09 06:40:11;;;;;;;5.88;3.55;;;;;;;13.90;63.92;100281.38;4952347;28;20493;-53
2021/05/09 06:42:38;;;;;;;7.35;3.50;;;;;;;13.94;64.04;100267.88;4953307;28;20051;-51
2021/05/09 06:45:11;;;;;;;5.90;3.22;;;;;;;13.98;63.92;100264.25;4950431;28;20562;-52
2021/05/09 06:47:40;;;;;;;6.93;3.80;;;;;;;14.04;63.56;100273.16;4947979;29;20059;-51
2021/05/09 06:50:08;;;;;;;6.35;3.10;;;;;;;14.12;63.13;100268.88;4952342;28;20102;-53
2021/05/09 06:52:36;;;;;;;7.88;3.40;;;;;;;14.18;63.41;100267.69;4953553;28;20043;-50
2021/05/09 06:55:04;;;;;;;7.45;3.72;;;;;;;14.23;63.16;100270.31;4952997;28;20530;-51
2021/05/09 06:57:31;;;;;;;8.65;3.65;;;;;;;14.26;63.06;100264.22;4953404;28;20094;-51
2021/05/09 06:59:58;;;;;;;7.45;3.90;;;;;;;14.30;63.01;100257.00;4952212;28;20047;-55
2021/05/09 07:02:25;;;;;;;7.85;3.72;;;;;;;14.37;62.76;100254.66;4953084;28;20035;-52
2021/05/09 07:04:54;;;;;;;6.22;3.85;;;;;;;14.45;62.69;100242.16;4953066;28;20054;-53
2021/05/09 07:07:21;;;;;;;8.13;3.95;;;;;;;14.51;62.75;100242.88;4952814;28;20055;-52
2021/05/09 07:09:48;;;;;;;8.82;4.28;;;;;;;14.56;62.23;100226.34;4952752;28;20054;-53
2021/05/09 07:12:16;;;;;;;6.63;3.65;;;;;;;14.64;62.44;100231.06;4952355;28;20038;-54
2021/05/09 07:14:44;;;;;;;9.65;3.50;;;;;;;14.71;61.91;100220.47;4952350;28;20106;-51
2021/05/09 07:17:12;;;;;;;7.18;4.05;;;;;;;14.83;61.65;100217.19;4952473;28;20048;-51
2021/05/09 07:19:39;;;;;;;6.97;3.53;;;;;;;14.95;61.17;100219.38;4951914;28;20137;-56
2021/05/09 07:22:13;;;;;;;14.23;3.53;;;;;;;15.02;61.40;100219.75;4952374;28;20561;-53
2021/05/09 07:24:44;;;;;;;4.72;3.38;;;;;;;15.15;61.00;100220.78;4952809;28;20565;-52
2021/05/09 07:27:11;;;;;;;6.82;3.30;;;;;;;15.17;60.99;100216.59;4952448;28;20054;-52
2021/05/09 07:29:38;;;;;;;6.07;3.20;;;;;;;15.20;61.00;100220.66;4951579;28;20454;-55
2021/05/09 07:32:05;;;;;;;5.40;3.03;;;;;;;15.23;61.13;100225.53;4952574;28;20035;-54
2021/05/09 07:34:33;;;;;;;5.20;2.90;;;;;;;15.22;61.24;100221.97;4951955;28;20051;-52
2021/05/09 07:37:00;;;;;;;6.15;3.20;;;;;;;15.22;61.22;100207.44;4952414;28;20699;-52
2021/05/09 07:39:27;;;;;;;4.47;3.00;;;;;;;15.24;61.31;100192.28;4952116;28;20133;-55
2021/05/09 07:41:54;;;;;;;7.78;3.10;;;;;;;15.25;61.27;100188.41;4952207;28;20044;-52
2021/05/09 07:44:21;;;;;;;6.97;3.05;;;;;;;15.29;61.06;100181.16;4950611;29;20086;-55
2021/05/09 07:46:48;;;;;;;4.63;2.80;;;;;;;15.37;61.17;100182.34;4951891;28;20159;-52
2021/05/09 07:49:15;;;;;;;5.25;2.85;;;;;;;15.47;60.36;100173.00;4952510;28;20054;-49
2021/05/09 07:51:43;;;;;;;7.95;2.97;;;;;;;15.53;60.55;100179.97;4951848;29;20067;-51
2021/05/09 07:54:10;;;;;;;6.32;3.03;;;;;;;15.57;60.70;100183.72;4952412;28;20070;-52
2021/05/09 07:56:38;;;;;;;7.93;3.80;;;;;;;15.62;60.66;100172.59;4951531;28;20103;-51
2021/05/09 07:59:06;;;;;;;9.32;3.70;;;;;;;15.75;60.64;100177.19;4952107;28;20402;-52
2021/05/09 08:01:33;;;;;;;7.82;3.13;;;;;;;15.88;60.85;100182.88;4967031;28;20106;-52
2021/05/09 08:04:01;;;;;;;6.18;3.33;;;;;;;16.00;60.05;100183.06;4952277;28;20087;-51
2021/05/09 08:06:28;;;;;;;6.30;3.20;;;;;;;16.10;59.67;100180.00;4952154;28;20051;-53
2021/05/09 08:08:56;;;;;;;7.32;3.97;;;;;;;16.15;60.55;100176.28;4952130;28;20046;-52
2021/05/09 08:11:23;;;;;;;7.22;3.50;;;;;;;16.22;59.35;100164.84;4965421;28;20039;-50
2021/05/09 08:13:50;;;;;;;6.80;3.17;;;;;;;16.23;58.83;100166.44;4952031;28;20043;-52
2021/05/09 08:16:17;;;;;;;5.95;3.20;;;;;;;16.22;59.30;100162.09;4952682;28;20430;-51
2021/05/09 08:18:45;;;;;;;5.95;3.30;;;;;;;16.24;60.29;100152.38;4953623;28;20454;-52
2021/05/09 08:21:12;;;;;;;6.13;3.40;;;;;;;16.40;59.21;100147.19;4954139;28;20106;-51
2021/05/09 08:23:43;;;;;;;5.85;3.28;;;;;;;16.58;57.96;100148.00;4954088;28;20510;-52
2021/05/09 08:26:11;;;;;;;6.32;3.05;;;;;;;16.66;58.10;100140.88;4942165;29;20051;-51
2021/05/09 08:28:41;;;;;;;10.50;4.22;;;;;;;16.66;58.47;100138.13;4953724;28;20106;-52
2021/05/09 08:31:11;;;;;;;11.35;3.97;;;;;;;16.62;59.36;100148.97;4954054;28;20043;-54
2021/05/09 08:33:39;;;;;;;7.85;3.50;;;;;;;16.73;58.97;100138.44;4953964;28;20490;-52
2021/05/09 08:36:06;;;;;;;17.38;5.28;;;;;;;16.74;59.23;100151.06;4953456;28;20043;-52
2021/05/09 08:38:33;;;;;;;7.53;3.30;;;;;;;16.70;60.46;100147.34;4953780;28;20383;-53
2021/05/09 08:41:00;;;;;;;6.40;2.88;;;;;;;16.75;59.51;100147.19;4953458;28;20054;-53
2021/05/09 08:43:27;;;;;;;11.95;5.00;;;;;;;16.80;59.00;100139.59;4956437;29;20043;-55
2021/05/09 08:45:58;;;;;;;13.35;4.38;;;;;;;16.87;59.10;100144.59;4957773;28;20552;-54
2021/05/09 08:48:26;;;;;;;14.70;5.10;;;;;;;16.94;58.95;100146.84;4958008;28;20388;-53
2021/05/09 08:50:53;;;;;;;6.63;3.40;;;;;;;16.99;58.91;100144.72;4956699;29;20043;-55
2021/05/09 08:53:20;;;;;;;7.63;3.95;;;;;;;17.07;58.50;100137.56;4957827;28;20077;-51
2021/05/09 08:55:49;;;;;;;6.70;3.38;;;;;;;17.16;58.14;100137.56;4957006;28;20071;-51
2021/05/09 08:58:16;;;;;;;10.07;4.40;;;;;;;17.18;58.34;100127.84;4957485;28;20043;-53
2021/05/09 09:00:43;;;;;;;11.13;4.25;;;;;;;17.19;58.81;100134.13;4957824;28;20047;-53
2021/05/09 09:03:15;;;;;;;10.98;4.68;;;;;;;17.22;58.95;100134.31;4957497;28;20458;-54
2021/05/09 09:05:45;;;;;;;10.18;4.15;;;;;;;17.39;58.42;100133.44;4957561;28;20075;-53
2021/05/09 09:08:16;;;;;;;8.15;3.35;;;;;;;17.39;57.91;100132.59;4957489;28;20044;-55
2021/05/09 09:10:44;;;;;;;10.13;3.20;;;;;;;17.34;59.02;100136.38;4956538;28;20102;-53
2021/05/09 09:13:28;;;;;;;8.65;3.58;;;;;;;17.36;57.82;100134.06;4957362;28;20054;-52
2021/05/09 09:16:04;;;;;;;12.32;4.38;;;;;;;17.44;58.60;100130.47;4956972;28;20398;-52
2021/05/09 09:18:37;;;;;;;9.27;3.80;;;;;;;17.51;58.91;100129.13;4957321;28;20043;-53
2021/05/09 09:21:28;;;;;;;11.60;3.80;;;;;;;17.59;59.22;100129.09;4957350;28;20533;-52
2021/05/09 09:24:10;;;;;;;14.93;5.57;;;;;;;17.54;58.37;100145.03;4956712;28;20074;-52
2021/05/09 09:26:50;;;;;;;14.00;4.60;;;;;;;17.58;59.37;100143.19;4957053;28;20055;-51
2021/05/09 09:29:21;;;;;;;11.98;3.97;;;;;;;17.55;59.92;100150.19;4957254;28;20054;-56
2021/05/09 09:31:54;;;;;;;10.23;3.63;;;;;;;17.69;60.42;100136.19;4956858;28;20039;-53
2021/05/09 09:34:22;;;;;;;24.00;7.32;;;;;;;17.74;58.88;100135.19;4956946;28;20051;-50
2021/05/09 09:36:58;;;;;;;8.38;3.60;;;;;;;17.74;59.16;100132.44;4957134;28;20083;-52
2021/05/09 09:39:59;;;;;;;10.95;3.53;;;;;;;18.01;58.89;100122.88;4970853;28;20412;-54
2021/05/09 09:42:44;;;;;;;10.07;4.30;;;;;;;18.10;58.46;100104.31;4971291;28;20059;-52
2021/05/09 09:45:25;;;;;;;6.97;3.78;;;;;;;18.15;57.87;100087.56;4946032;29;20494;-52
2021/05/09 09:47:54;;;;;;;6.30;3.20;;;;;;;18.15;57.76;100082.06;4956509;28;20090;-52
2021/05/09 09:50:46;;;;;;;6.05;3.60;;;;;;;18.17;58.00;100073.47;4956375;28;20047;-51
2021/05/09 09:53:27;;;;;;;9.65;3.35;;;;;;;18.20;57.80;100068.06;4955759;28;20502;-51
2021/05/09 09:56:02;;;;;;;10.27;3.90;;;;;;;18.18;57.94;100081.38;4956210;28;20071;-51
2021/05/09 09:58:51;;;;;;;8.30;3.50;;;;;;;18.15;58.62;100082.06;4954973;29;20047;-52
2021/05/09 10:01:37;;;;;;;9.73;3.78;;;;;;;18.12;59.08;100071.72;4954143;29;20513;-52
2021/05/09 10:04:08;;;;;;;19.42;6.18;;;;;;;18.18;58.86;100080.59;4954177;29;20094;-51
2021/05/09 10:06:38;;;;;;;25.55;8.75;;;;;;;18.20;59.03;100078.28;4953796;29;20071;-48
2021/05/09 10:09:07;;;;;;;11.88;4.88;;;;;;;18.18;58.74;100078.63;4953715;29;20054;-51
2021/05/09 10:11:35;;;;;;;12.80;5.10;;;;;;;18.26;58.95;100082.47;4953699;29;20469;-48
2021/05/09 10:14:04;;;;;;;13.75;5.25;;;;;;;18.40;57.79;100065.63;4953787;29;20070;-51
2021/05/09 10:16:39;;;;;;;11.77;4.30;;;;;;;18.41;58.18;100058.97;4953655;29;20054;-54
2021/05/09 10:19:11;;;;;;;10.25;4.50;;;;;;;18.29;57.93;100066.03;4938085;29;20612;-53
2021/05/09 10:21:40;;;;;;;27.85;8.32;;;;;;;18.27;53.07;100068.34;4953083;29;20411;-52
2021/05/09 10:24:08;;;;;;;6.45;3.40;;;;;;;18.42;58.59;100074.38;4953411;29;20074;-51
2021/05/09 10:26:53;;;;;;;9.25;3.58;;;;;;;18.52;57.95;100074.75;4953610;29;20411;-51
2021/05/09 10:29:37;;;;;;;6.18;3.28;;;;;;;18.63;56.11;100064.09;4953444;28;20059;-54
2021/05/09 10:32:20;;;;;;;14.50;5.20;;;;;;;18.60;58.17;100070.28;4953678;29;20087;-53
2021/05/09 10:34:54;;;;;;;10.98;4.45;;;;;;;18.58;56.48;100080.84;4953541;29;20047;-54
2021/05/09 10:37:44;;;;;;;7.70;3.97;;;;;;;18.52;57.72;100077.53;4951569;29;20055;-55
2021/05/09 10:40:28;;;;;;;11.70;4.07;;;;;;;18.56;58.06;100065.78;4945566;29;20051;-54
2021/05/09 10:43:03;;;;;;;10.80;4.65;;;;;;;18.57;57.64;100059.13;4955318;28;20035;-55
2021/05/09 10:45:30;;;;;;;10.48;3.95;;;;;;;18.64;58.00;100057.44;4955853;28;20050;-53
2021/05/09 10:48:19;;;;;;;10.38;4.80;;;;;;;18.64;57.87;100065.72;4970365;28;20106;-54
2021/05/09 10:50:49;;;;;;;14.38;5.30;;;;;;;18.62;55.42;100050.66;4954495;28;20067;-55
2021/05/09 10:53:38;;;;;;;9.05;4.15;;;;;;;18.57;58.19;100048.09;4955462;28;20490;-53
2021/05/09 10:56:14;;;;;;;9.57;4.60;;;;;;;18.63;58.98;100041.22;4955247;28;20399;-50
2021/05/09 10:58:43;;;;;;;14.50;6.10;;;;;;;18.62;59.72;100051.44;4955108;28;20074;-52
2021/05/09 11:01:14;;;;;;;9.00;3.67;;;;;;;18.64;60.74;99995.91;4970218;28;20062;-52
2021/05/09 11:03:41;;;;;;;9.93;4.78;;;;;;;18.64;63.10;99982.09;4954184;28;20047;-54
2021/05/09 11:06:13;;;;;;;11.85;4.78;;;;;;;18.66;61.78;99953.03;4954666;28;20098;-52
2021/05/09 11:08:51;;;;;;;7.25;3.78;;;;;;;18.61;63.70;99980.84;4955152;28;20059;-54
2021/05/09 11:11:25;;;;;;;9.43;4.68;;;;;;;18.56;64.10;99975.56;4954880;28;20497;-54
2021/05/09 11:14:01;;;;;;;11.23;4.97;;;;;;;18.55;63.36;99979.47;4941568;28;20507;-54
2021/05/09 11:16:34;;;;;;;7.32;3.80;;;;;;;18.58;63.47;99981.53;4954969;28;20039;-51
2021/05/09 11:19:09;;;;;;;8.70;4.20;;;;;;;18.66;62.82;99986.13;4953128;29;20106;-54
2021/05/09 11:21:40;;;;;;;10.27;3.90;;;;;;;18.81;61.03;99992.16;4954959;28;20054;-52
2021/05/09 11:24:09;;;;;;;7.57;3.70;;;;;;;18.87;60.90;100012.88;4954536;28;20043;-53
2021/05/09 11:26:57;;;;;;;7.57;3.78;;;;;;;19.02;58.88;100012.19;4672885;28;10001466;-49
2021/05/09 11:29:26;;;;;;;11.98;4.25;;;;;;;19.09;58.77;100015.19;4954257;28;20761;-51
2021/05/09 11:32:20;;;;;;;17.38;5.40;;;;;;;19.24;56.80;100013.69;4957351;28;20054;-53
2021/05/09 11:34:53;;;;;;;14.55;5.65;;;;;;;19.26;52.75;100029.91;4953606;28;20513;-55
2021/05/09 11:37:23;;;;;;;18.17;6.10;;;;;;;19.24;54.58;100029.44;4960521;28;20562;-52